Etusivu
METAR-TAF:

METAR-TAF

Lentoasemat :

Saint-Yan, Ranska

Leveyspiiri: 46-24-45N, Pituuspiiri: 004-00-48E, korkeus merenpinnasta: 244 m

Tämänhetkinen sää

Tämä raportti tehtiin 27 minuuttia sitten, kello 13.00 UTC
Tuuli 15 kn pohjoisesta/koillisesta
Lämpötila 6°C
Kosteus 56%
Ilmanpaine 1020 hPa
Näkyvyys 10 km tai enemmän
Pilvistä 3300 ft:n korkeudessa

METAR: LFLN 301300Z AUTO 03015KT 9999 OVC033 06/M02 Q1020

Aika: 15:27 (13:27 UTC)


TAF: puuttuu

Säähavainnot ja -ennusteet yli 4000 lentoasemalta (METAR- ja TAF-raportit).

Käytössä olevat sääasemat on merkitty karttaan keltaisilla ja punaisilla pisteillä.

Aseta hiiri pisteen päälle nähdäksesi sääaseman nimen.

Klikkaa sitten nähdäksesi säähavainnot ja -ennusteet.

Kartan vaihtaminen: klikkaa mustalla rastilla varustettuja vihreitä pisteitä, niin voit zoomata sisään; viivalla varustettua vihreää pistettä, niin voit zoomata ulos tai vihreitä nuolia, niin pääset viereisille kartoille.


METAR-TAF: